Kennicott — WCY2920 — position and weather

sailwx.info

Track history (hours):
 
Tides and Currents Weather Stations Pressure Air Temp Water Temp Dewpoint Dewpoint Depression Visibility Wind Speed Wind Dir Waves Ship Positions

Kennicott

Owner: ALASKA, STATE OF, Anchorage, AK. More information available from US FCC via Universal Licensing System and Coast Guard Vessel Documentation Center.

Last reported at 2018-Oct-21 11:56 UTC. Time now 2018-Oct-24 05:38 UTC.
Position N 54°59' W 131°04'.

Type: Passenger vessel. MMSI: 368250000.

Date/timePositionNaut miles runAvg speedWind from/ knotsBaromVisibWave heightAir tempDewpointWater temp
2018-Oct-21 11:56N 54°59' W 131°04'716.4
2018-Oct-21 11:29N 54°52' W 131°00'716.5
2018-Oct-21 11:03N 54°45' W 130°55'117.0
2018-Oct-21 11:00N 54°45' W 130°54'816.2
2018-Oct-21 10:30N 54°39' W 130°45'716.1
2018-Oct-21 10:03N 54°32' W 130°39'116.1
2018-Oct-21 10:00N 54°31' W 130°39'817.0
2018-Oct-21 09:30N 54°23' W 130°37'817.0
2018-Oct-21 09:03N 54°16' W 130°33'117.2
2018-Oct-21 09:01N 54°15' W 130°32'917.1
2018-Oct-21 08:31N 54°08' W 130°24'714.9
2018-Oct-21 08:04N 54°03' W 130°15'117.4
2018-Oct-21 08:01N 54°02' W 130°15'816.7
2018-Oct-21 07:30N 53°55' W 130°10'816.7
2018-Oct-21 07:03N 53°50' W 130°00'117.1
2018-Oct-21 07:00N 53°49' W 129°59'917.2
2018-Oct-21 06:30N 53°43' W 129°49'7514.8
2018-Oct-21 01:29N 52°43' W 128°33'614.7
2018-Oct-21 01:03N 52°38' W 128°30'117.0
2018-Oct-21 01:00N 52°37' W 128°29'816.7
2018-Oct-21 00:31N 52°29' W 128°27'715.8
2018-Oct-21 00:03N 52°22' W 128°32'115.7
2018-Oct-21 00:00N 52°21' W 128°32'815.1
2018-Oct-20 23:30N 52°15' W 128°24'716.1
2018-Oct-20 23:03N 52°14' W 128°12'116.5
2018-Oct-20 23:00N 52°14' W 128°11'4 8.8
2018-Oct-20 22:30N 52°10' W 128°08'510.9
2018-Oct-20 22:03N 52°05' W 128°06'115.8
2018-Oct-20 22:01N 52°05' W 128°05'713.0
2018-Oct-20 21:30N 52°01' W 127°56'715.9
2018-Oct-20 21:03N 51°54' W 127°56'116.1
2018-Oct-20 21:00N 51°53' W 127°56'816.3
2018-Oct-20 20:30N 51°45' W 127°55'716.1
2018-Oct-20 20:03N 51°38' W 127°54'116.2
2018-Oct-20 20:00N 51°37' W 127°53'816.1
2018-Oct-20 19:30N 51°29' W 127°51'715.6
2018-Oct-20 19:03N 51°22' W 127°52'115.5
2018-Oct-20 19:00N 51°22' W 127°52'815.6
2018-Oct-20 18:30N 51°14' W 127°52'715.3
2018-Oct-20 18:03N 51°08' W 127°47'116.0
2018-Oct-20 18:00N 51°07' W 127°46'815.6
2018-Oct-20 17:30N 51°02' W 127°37'614.4
2018-Oct-20 17:03N 50°58' W 127°29'115.3
2018-Oct-20 17:00N 50°57' W 127°28'815.5
2018-Oct-20 16:30N 50°52' W 127°18'716.5
2018-Oct-20 16:03N 50°48' W 127°09'116.2
2018-Oct-20 16:00N 50°48' W 127°07'1016.2
2018-Oct-20 15:22N 50°42' W 126°54'4715.9
2018-Oct-20 12:25N 50°23' W 125°47'1317.2
2018-Oct-20 11:41N 50°20' W 125°27'214.3
2018-Oct-20 11:30N 50°18' W 125°25'716.4
2018-Oct-20 11:03N 50°11' W 125°22'116.7
2018-Oct-20 11:00N 50°10' W 125°22'713.4
2018-Oct-20 10:30N 50°05' W 125°16'512.2
2018-Oct-20 10:03N 49°60' W 125°12'115.5
2018-Oct-20 10:00N 49°59' W 125°12'815.8
2018-Oct-20 09:30N 49°54' W 125°03'716.5
2018-Oct-20 09:03N 49°48' W 124°55'116.3
2018-Oct-20 09:00N 49°48' W 124°54'816.2
2018-Oct-20 08:30N 49°42' W 124°45'716.5
2018-Oct-20 08:03N 49°37' W 124°37'116.4
2018-Oct-20 08:00N 49°36' W 124°36'816.3
2018-Oct-20 07:30N 49°30' W 124°27'716.1
2018-Oct-20 07:04N 49°26' W 124°19'115.8
2018-Oct-20 07:00N 49°26' W 124°17'816.0
2018-Oct-20 06:31N 49°23' W 124°06'716.1
2018-Oct-20 06:04N 49°22' W 123°55'115.9
2018-Oct-20 06:01N 49°22' W 123°54'815.7
2018-Oct-20 05:30N 49°18' W 123°43'716.1
2018-Oct-20 05:03N 49°13' W 123°35'116.3
2018-Oct-20 05:01N 49°12' W 123°34'816.1
2018-Oct-20 04:30N 49°07' W 123°25'715.8
2018-Oct-20 04:04N 49°02' W 123°17'116.2
2018-Oct-20 04:01N 49°01' W 123°16'816.0
2018-Oct-20 03:30N 48°56' W 123°07'716.0
2018-Oct-20 03:04N 48°51' W 122°59'115.9
2018-Oct-20 03:01N 48°51' W 122°58'815.6
2018-Oct-20 02:30N 48°46' W 122°48'715.0
2018-Oct-20 02:03N 48°41' W 122°42'115.3
2018-Oct-20 02:01N 48°40' W 122°42'610.9
2018-Oct-20 01:29N 48°41' W 122°33'3 7.2
2018-Oct-20 01:03N 48°43' W 122°31'0 0.0
2018-Oct-20 01:00N 48°43' W 122°31'0 0.0
2018-Oct-20 00:17N 48°43' W 122°31'0 0.0
2018-Oct-19 23:41N 48°43' W 122°31'0 0.0
2018-Oct-19 23:29N 48°43' W 122°31'0 0.0
2018-Oct-19 22:59N 48°43' W 122°31'0 0.0
2018-Oct-19 22:29N 48°43' W 122°31'0 0.0
2018-Oct-19 21:41N 48°43' W 122°31'0 0.0
2018-Oct-19 21:29N 48°43' W 122°31'0 0.0
2018-Oct-19 20:59N 48°43' W 122°31'0 0.0
2018-Oct-19 20:17N 48°43' W 122°31'0 0.0
2018-Oct-19 19:47N 48°43' W 122°31'0 0.0
2018-Oct-19 19:11N 48°43' W 122°31'0 0.0
2018-Oct-19 18:47N 48°43' W 122°31'0 0.0
2018-Oct-19 18:29N 48°43' W 122°31'0 0.0
2018-Oct-19 17:59N 48°43' W 122°31'0 0.0
2018-Oct-19 17:29N 48°43' W 122°31'0 0.0
2018-Oct-19 16:59N 48°43' W 122°31'0 0.0
2018-Oct-19 16:29N 48°43' W 122°31'0 0.0
2018-Oct-19 15:59N 48°43' W 122°31'0 0.0
2018-Oct-19 15:29N 48°43' W 122°31'0 0.1
2018-Oct-19 14:47N 48°43' W 122°31'1 2.4
2018-Oct-19 14:31N 48°43' W 122°32'8 8.0
2018-Oct-19 13:30N 48°40' W 122°43'714.7
2018-Oct-19 13:03N 48°45' W 122°49'114.6
2018-Oct-19 13:00N 48°46' W 122°50'815.1
2018-Oct-19 12:30N 48°50' W 122°60'715.2
2018-Oct-19 12:03N 48°54' W 123°07'115.5
2018-Oct-19 12:00N 48°55' W 123°08'816.3
2018-Oct-19 11:30N 48°60' W 123°18'817.5
2018-Oct-19 11:03N 49°05' W 123°27'117.1
2018-Oct-19 11:00N 49°06' W 123°28'817.0
2018-Oct-19 10:30N 49°11' W 123°38'816.8
2018-Oct-19 10:03N 49°15' W 123°48'117.5
2018-Oct-19 10:00N 49°15' W 123°49'917.1
2018-Oct-19 09:30N 49°19' W 124°00'816.9
2018-Oct-19 09:03N 49°23' W 124°11'116.9
2018-Oct-19 09:00N 49°24' W 124°12'816.8
2018-Oct-19 08:30N 49°28' W 124°23'816.8
2018-Oct-19 08:03N 49°33' W 124°31'117.0
2018-Oct-19 08:00N 49°34' W 124°32'816.8
2018-Oct-19 07:30N 49°40' W 124°41'816.9
2018-Oct-19 07:03N 49°45' W 124°49'117.1
2018-Oct-19 07:00N 49°46' W 124°50'816.9
2018-Oct-19 06:30N 49°52' W 124°60'816.8
2018-Oct-19 06:03N 49°57' W 125°08'117.2
2018-Oct-19 05:59N 49°58' W 125°09'917.6
2018-Oct-19 05:30N 50°05' W 125°16'613.3
2018-Oct-19 05:03N 50°10' W 125°22'1 9.7
2018-Oct-19 05:00N 50°10' W 125°22'816.1
2018-Oct-19 04:30N 50°18' W 125°25'914.1
2018-Oct-19 03:51N 50°22' W 125°38'515.6
2018-Oct-19 03:30N 50°23' W 125°46'1311.9
2018-Oct-19 02:23N 50°28' W 126°06'615.5
2018-Oct-19 02:00N 50°29' W 126°15'714.3
2018-Oct-19 01:30N 50°30' W 126°26'715.8
2018-Oct-19 01:03N 50°31' W 126°37'115.5
2018-Oct-19 01:00N 50°31' W 126°38'814.3
2018-Oct-19 00:28N 50°37' W 126°46'716.6
2018-Oct-19 00:01N 50°42' W 126°55'017.6
2018-Oct-19 00:00N 50°42' W 126°55'816.5
2018-Oct-18 23:30N 50°48' W 127°05'716.2
2018-Oct-18 23:03N 50°51' W 127°15'116.0
2018-Oct-18 23:00N 50°52' W 127°16'815.6
2018-Oct-18 22:30N 50°56' W 127°27'714.8
2018-Oct-18 22:03N 50°60' W 127°35'115.7
2018-Oct-18 22:00N 51°01' W 127°36'815.4
2018-Oct-18 21:30N 51°06' W 127°44'715.1
2018-Oct-18 21:03N 51°11' W 127°51'115.1
2018-Oct-18 21:01N 51°12' W 127°51'815.6
2018-Oct-18 20:30N 51°20' W 127°52'716.2
2018-Oct-18 20:03N 51°27' W 127°51'116.2
2018-Oct-18 20:00N 51°28' W 127°51'816.3
2018-Oct-18 19:31N 51°36' W 127°53'716.2
2018-Oct-18 19:03N 51°43' W 127°55'116.1
2018-Oct-18 19:00N 51°44' W 127°55'816.5
2018-Oct-18 18:31N 51°52' W 127°56'817.0
2018-Oct-18 18:03N 51°60' W 127°56'117.1
2018-Oct-18 18:01N 52°01' W 127°56'612.7
2018-Oct-18 17:30N 52°05' W 128°04'511.8
2018-Oct-18 17:04N 52°09' W 128°08'0 6.9
2018-Oct-18 17:00N 52°09' W 128°08'3 6.8
2018-Oct-18 16:30N 52°13' W 128°09'816.9
2018-Oct-18 16:03N 52°15' W 128°21'116.4
2018-Oct-18 16:00N 52°15' W 128°22'816.3
2018-Oct-18 15:31N 52°15' W 128°35'714.9
2018-Oct-18 15:03N 52°13' W 128°46'115.4
2018-Oct-18 15:01N 52°14' W 128°46'815.8
2018-Oct-18 14:30N 52°22' W 128°49'815.7
2018-Oct-18 14:00N 52°29' W 128°52'815.7
2018-Oct-18 13:30N 52°37' W 128°54'715.5
2018-Oct-18 13:03N 52°42' W 129°02'115.3
2018-Oct-18 13:00N 52°43' W 129°03'815.8
2018-Oct-18 12:30N 52°49' W 129°12'716.3
2018-Oct-18 12:03N 52°54' W 129°20'116.3
2018-Oct-18 12:00N 52°55' W 129°21'816.1
2018-Oct-18 11:30N 53°01' W 129°30'2916.1
2018-Oct-18 09:43N 53°26' W 129°55'416.1
2018-Oct-18 09:28N 53°28' W 130°00'716.3
2018-Oct-18 09:03N 53°32' W 130°09'116.4
2018-Oct-18 09:00N 53°33' W 130°10'916.8
2018-Oct-18 08:30N 53°37' W 130°22'716.5
2018-Oct-18 08:03N 53°42' W 130°31'116.0
2018-Oct-18 08:00N 53°43' W 130°32'816.3
2018-Oct-18 07:30N 53°48' W 130°43'716.5
2018-Oct-18 07:04N 53°53' W 130°52'116.1
2018-Oct-18 07:00N 53°54' W 130°53'815.4
2018-Oct-18 06:30N 54°01' W 130°58'716.0
2018-Oct-18 06:03N 54°08' W 131°00'115.7
2018-Oct-18 06:00N 54°08' W 131°00'815.6
2018-Oct-18 05:30N 54°16' W 131°03'715.7
2018-Oct-18 05:03N 54°23' W 131°07'114.9
2018-Oct-18 05:00N 54°24' W 131°07'814.9
2018-Oct-18 04:30N 54°30' W 131°14'715.7
2018-Oct-18 04:03N 54°35' W 131°22'115.6
2018-Oct-18 03:59N 54°36' W 131°23'  
2018-Oct-14 12:20N 54°54' W 131°02'516.6
2018-Oct-14 12:03N 54°50' W 130°59'116.5
2018-Oct-14 12:00N 54°49' W 130°58'816.1
2018-Oct-14 11:30N 54°42' W 130°51'816.8
2018-Oct-14 11:03N 54°37' W 130°42'116.6
2018-Oct-14 11:00N 54°36' W 130°41'816.0
2018-Oct-14 10:30N 54°28' W 130°38'716.4
2018-Oct-14 10:03N 54°21' W 130°36'115.6
2018-Oct-14 10:00N 54°20' W 130°36'816.2
2018-Oct-14 09:31N 54°13' W 130°29'714.6
2018-Oct-14 09:03N 54°07' W 130°23'116.8
2018-Oct-14 09:00N 54°07' W 130°23'816.3
2018-Oct-14 08:30N 54°01' W 130°13'715.8
2018-Oct-14 08:03N 53°54' W 130°08'116.1
2018-Oct-14 08:00N 53°54' W 130°07'816.4
2018-Oct-14 07:30N 53°48' W 129°57'716.3
2018-Oct-14 07:03N 53°43' W 129°49'116.2
2018-Oct-14 06:59N 53°42' W 129°48'7314.0
2018-Oct-14 01:48N 52°44' W 128°33'515.4
2018-Oct-14 01:31N 52°40' W 128°32'715.7
2018-Oct-14 01:03N 52°33' W 128°28'116.7
2018-Oct-14 01:00N 52°32' W 128°28'816.0
2018-Oct-14 00:30N 52°24' W 128°30'614.1
2018-Oct-14 00:04N 52°18' W 128°28'116.1
2018-Oct-14 00:00N 52°17' W 128°28'815.6
2018-Oct-13 23:30N 52°14' W 128°15'614.3
2018-Oct-13 23:03N 52°11' W 128°07'0 8.9
2018-Oct-13 23:00N 52°11' W 128°07'4 8.3
2018-Oct-13 22:31N 52°07' W 128°08'613.9
2018-Oct-13 22:03N 52°04' W 127°58'116.5
2018-Oct-13 22:01N 52°04' W 127°57'815.3
2018-Oct-13 21:30N 51°56' W 127°56'716.1
2018-Oct-13 21:03N 51°49' W 127°55'115.4
2018-Oct-13 21:01N 51°48' W 127°55'816.2
2018-Oct-13 20:31N 51°40' W 127°54'716.2
2018-Oct-13 20:04N 51°33' W 127°52'116.1
2018-Oct-13 20:01N 51°32' W 127°51'816.0
2018-Oct-13 19:31N 51°24' W 127°51'715.9
2018-Oct-13 19:03N 51°17' W 127°52'116.3
2018-Oct-13 19:00N 51°16' W 127°52'815.7
2018-Oct-13 18:31N 51°09' W 127°49'716.0
2018-Oct-13 18:03N 51°04' W 127°41'116.4
2018-Oct-13 18:01N 51°04' W 127°40'815.2
2018-Oct-13 17:30N 50°58' W 127°31'716.5
2018-Oct-13 17:04N 50°54' W 127°22'116.8
2018-Oct-13 17:00N 50°53' W 127°21'916.6
2018-Oct-13 16:28N 50°48' W 127°08'1216.4
2018-Oct-13 15:43N 50°41' W 126°53'415.5
2018-Oct-13 15:28N 50°39' W 126°49'815.5
2018-Oct-13 14:55N 50°32' W 126°40'716.0
2018-Oct-13 14:30N 50°30' W 126°30'816.2
2018-Oct-13 14:00N 50°29' W 126°17'2114.3
2018-Oct-13 12:34N 50°23' W 125°47'114.2
2018-Oct-13 12:30N 50°22' W 125°45'913.9
2018-Oct-13 11:52N 50°21' W 125°32'512.7
2018-Oct-13 11:30N 50°19' W 125°25'714.8
2018-Oct-13 11:04N 50°13' W 125°23'115.0
2018-Oct-13 11:01N 50°12' W 125°22'510.8
2018-Oct-13 10:30N 50°07' W 125°20'511.6
2018-Oct-13 10:03N 50°03' W 125°14'111.5
2018-Oct-13 10:00N 50°03' W 125°14'714.4
2018-Oct-13 09:30N 49°57' W 125°07'716.5
2018-Oct-13 09:03N 49°51' W 124°59'116.1
2018-Oct-13 09:01N 49°51' W 124°58'816.4
2018-Oct-13 08:31N 49°45' W 124°49'716.3
2018-Oct-13 08:03N 49°40' W 124°41'115.9
2018-Oct-13 08:01N 49°39' W 124°41'816.4
2018-Oct-13 07:30N 49°33' W 124°32'816.2
2018-Oct-13 07:02N 49°28' W 124°23'116.0
2018-Oct-13 07:00N 49°28' W 124°22'815.9
2018-Oct-13 06:30N 49°24' W 124°12'716.6
2018-Oct-13 06:04N 49°23' W 124°01'115.9
2018-Oct-13 06:01N 49°22' W 123°59'816.5
2018-Oct-13 05:31N 49°20' W 123°47'716.2
2018-Oct-13 05:03N 49°15' W 123°39'116.3
2018-Oct-13 05:00N 49°15' W 123°38'816.2
2018-Oct-13 04:30N 49°09' W 123°29'716.0
2018-Oct-13 04:03N 49°04' W 123°21'115.4
2018-Oct-13 04:01N 49°04' W 123°20'815.9
2018-Oct-13 03:30N 48°58' W 123°11'716.1
2018-Oct-13 03:03N 48°54' W 123°03'116.7
2018-Oct-13 03:00N 48°53' W 123°02'816.9
2018-Oct-13 02:30N 48°48' W 122°52'716.5
2018-Oct-13 02:04N 48°43' W 122°44'117.6
2018-Oct-13 02:00N 48°42' W 122°43'713.9
2018-Oct-13 01:31N 48°39' W 122°34'5 9.4
2018-Oct-13 00:59N 48°43' W 122°31'0 0.0
2018-Oct-13 00:27N 48°43' W 122°31'0 0.0
2018-Oct-12 23:57N 48°43' W 122°31'0 0.0
2018-Oct-12 23:27N 48°43' W 122°31'0 0.0
2018-Oct-12 22:15N 48°43' W 122°31'0 0.0
2018-Oct-12 21:57N 48°43' W 122°31'0 0.0
2018-Oct-12 21:27N 48°43' W 122°31'0 0.0
2018-Oct-12 20:51N 48°43' W 122°31'0 0.0
2018-Oct-12 20:21N 48°43' W 122°31'0 0.0
2018-Oct-12 18:54N 48°43' W 122°31'0 0.0
2018-Oct-12 18:09N 48°43' W 122°31'0 0.0
2018-Oct-12 17:54N 48°43' W 122°31'0 0.0
2018-Oct-12 17:06N 48°43' W 122°31'0 0.0
2018-Oct-12 16:48N 48°43' W 122°31'0 0.0
2018-Oct-12 16:30N 48°43' W 122°31'0 0.0
2018-Oct-12 15:51N 48°43' W 122°31'0 0.0
2018-Oct-12 15:21N 48°43' W 122°31'0 0.0
2018-Oct-12 14:57N 48°43' W 122°31'3 3.6
2018-Oct-12 14:03N 48°41' W 122°33'114.5
2018-Oct-12 13:58N 48°39' W 122°34'511.1
2018-Oct-12 13:30N 48°39' W 122°41'613.8
2018-Oct-12 13:03N 48°45' W 122°47'113.4
2018-Oct-12 13:00N 48°45' W 122°48'714.6
2018-Oct-12 12:30N 48°49' W 122°57'714.7
2018-Oct-12 12:03N 48°52' W 123°06'115.1
2018-Oct-12 12:00N 48°53' W 123°06'715.0
2018-Oct-12 11:31N 48°58' W 123°15'714.5
2018-Oct-12 11:03N 49°02' W 123°22'114.0
2018-Oct-12 11:01N 49°03' W 123°23'714.2
2018-Oct-12 10:30N 49°08' W 123°30'714.8
2018-Oct-12 10:03N 49°12' W 123°38'115.7
2018-Oct-12 10:00N 49°13' W 123°38'815.3
2018-Oct-12 09:30N 49°19' W 123°45'715.3
2018-Oct-12 09:03N 49°23' W 123°54'115.5
2018-Oct-12 09:00N 49°24' W 123°55'715.0
2018-Oct-12 08:30N 49°29' W 124°03'715.5
2018-Oct-12 08:03N 49°34' W 124°10'116.0
2018-Oct-12 08:00N 49°35' W 124°11'815.5
2018-Oct-12 07:30N 49°41' W 124°18'714.9
2018-Oct-12 07:03N 49°45' W 124°26'116.1
2018-Oct-12 07:00N 49°45' W 124°27'714.9
2018-Oct-12 06:30N 49°51' W 124°35'716.0
2018-Oct-12 06:03N 49°56' W 124°43'116.6
2018-Oct-12 06:00N 49°57' W 124°44'816.0
2018-Oct-12 05:30N 50°01' W 124°55'715.4
2018-Oct-12 05:03N 49°58' W 125°05'116.5
2018-Oct-12 05:00N 49°58' W 125°06'510.5
2018-Oct-12 04:30N 50°01' W 125°13'4 8.2
2018-Oct-12 04:03N 50°04' W 125°15'0 3.6
2018-Oct-12 04:00N 50°04' W 125°15'611.1
2018-Oct-12 03:31N 50°08' W 125°21'614.1
2018-Oct-12 03:04N 50°14' W 125°23'115.4
2018-Oct-12 03:00N 50°15' W 125°24'1212.8
2018-Oct-12 02:03N 50°22' W 125°39'014.3
2018-Oct-12 02:00N 50°22' W 125°40'1614.8
2018-Oct-12 00:54N 50°28' W 126°05'715.9
2018-Oct-12 00:27N 50°29' W 126°16'716.1
2018-Oct-12 00:03N 50°30' W 126°26'115.4
2018-Oct-12 00:00N 50°30' W 126°27'815.7
2018-Oct-11 23:30N 50°32' W 126°39'715.6
2018-Oct-11 23:03N 50°37' W 126°46'318.0
2018-Oct-11 22:52N 50°39' W 126°50'617.4
2018-Oct-11 22:30N 50°43' W 126°58'817.0
2018-Oct-11 22:03N 50°48' W 127°07'116.7
2018-Oct-11 22:00N 50°48' W 127°08'917.2
2018-Oct-11 21:30N 50°53' W 127°20'816.8
2018-Oct-11 21:03N 50°58' W 127°29'115.8
2018-Oct-11 21:00N 50°58' W 127°30'815.3
2018-Oct-11 20:30N 51°03' W 127°39'716.2
2018-Oct-11 20:04N 51°08' W 127°48'116.1
2018-Oct-11 20:01N 51°09' W 127°49'815.4
2018-Oct-11 19:30N 51°16' W 127°53'715.8
2018-Oct-11 19:03N 51°23' W 127°51'116.1
2018-Oct-11 19:01N 51°24' W 127°51'816.0
2018-Oct-11 18:30N 51°32' W 127°52'716.1
2018-Oct-11 18:03N 51°39' W 127°54'115.5
2018-Oct-11 18:00N 51°40' W 127°55'815.8
2018-Oct-11 17:31N 51°47' W 127°56'715.5
2018-Oct-11 17:03N 51°54' W 127°56'115.9
2018-Oct-11 17:01N 51°55' W 127°56'815.8
2018-Oct-11 16:31N 52°03' W 127°56'715.0
2018-Oct-11 16:03N 52°05' W 128°06'116.4
2018-Oct-11 16:00N 52°06' W 128°07'510.3
2018-Oct-11 15:30N 52°11' W 128°07'510.6
2018-Oct-11 15:03N 52°14' W 128°13'115.9
2018-Oct-11 15:00N 52°14' W 128°14'815.3
2018-Oct-11 14:30N 52°16' W 128°26'815.7
2018-Oct-11 14:01N 52°14' W 128°39'612.3
2018-Oct-11 13:30N 52°17' W 128°48'716.3
2018-Oct-11 13:03N 52°25' W 128°50'116.0
2018-Oct-11 13:00N 52°25' W 128°50'816.0
2018-Oct-11 12:30N 52°33' W 128°53'715.0
2018-Oct-11 12:03N 52°39' W 128°58'115.5
2018-Oct-11 12:00N 52°40' W 128°59'  
Track history (hours):
 
Tides and Currents Weather Stations Pressure Air Temp Water Temp Dewpoint Dewpoint Depression Visibility Wind Speed Wind Dir Waves Ship Positions

Kennicott

Owner: ALASKA, STATE OF, Anchorage, AK. More information available from US FCC via Universal Licensing System and Coast Guard Vessel Documentation Center.

Last reported at 2018-Oct-21 11:56 UTC. Time now 2018-Oct-24 05:38 UTC.
Position N 54°59' W 131°04'.

Type: Passenger vessel. MMSI: 368250000.

Date/timePositionNaut miles runAvg speedWind from/ knotsBaromVisibWave heightAir tempDewpointWater temp
2018-Oct-21 11:56N 54°59' W 131°04'716.4
2018-Oct-21 11:29N 54°52' W 131°00'716.5
2018-Oct-21 11:03N 54°45' W 130°55'117.0
2018-Oct-21 11:00N 54°45' W 130°54'816.2
2018-Oct-21 10:30N 54°39' W 130°45'716.1
2018-Oct-21 10:03N 54°32' W 130°39'116.1
2018-Oct-21 10:00N 54°31' W 130°39'817.0
2018-Oct-21 09:30N 54°23' W 130°37'817.0
2018-Oct-21 09:03N 54°16' W 130°33'117.2
2018-Oct-21 09:01N 54°15' W 130°32'917.1
2018-Oct-21 08:31N 54°08' W 130°24'714.9
2018-Oct-21 08:04N 54°03' W 130°15'117.4
2018-Oct-21 08:01N 54°02' W 130°15'816.7
2018-Oct-21 07:30N 53°55' W 130°10'816.7
2018-Oct-21 07:03N 53°50' W 130°00'117.1
2018-Oct-21 07:00N 53°49' W 129°59'917.2
2018-Oct-21 06:30N 53°43' W 129°49'7514.8
2018-Oct-21 01:29N 52°43' W 128°33'614.7
2018-Oct-21 01:03N 52°38' W 128°30'117.0
2018-Oct-21 01:00N 52°37' W 128°29'816.7
2018-Oct-21 00:31N 52°29' W 128°27'715.8
2018-Oct-21 00:03N 52°22' W 128°32'115.7
2018-Oct-21 00:00N 52°21' W 128°32'815.1
2018-Oct-20 23:30N 52°15' W 128°24'716.1
2018-Oct-20 23:03N 52°14' W 128°12'116.5
2018-Oct-20 23:00N 52°14' W 128°11'4 8.8
2018-Oct-20 22:30N 52°10' W 128°08'510.9
2018-Oct-20 22:03N 52°05' W 128°06'115.8
2018-Oct-20 22:01N 52°05' W 128°05'713.0
2018-Oct-20 21:30N 52°01' W 127°56'715.9
2018-Oct-20 21:03N 51°54' W 127°56'116.1
2018-Oct-20 21:00N 51°53' W 127°56'816.3
2018-Oct-20 20:30N 51°45' W 127°55'716.1
2018-Oct-20 20:03N 51°38' W 127°54'116.2
2018-Oct-20 20:00N 51°37' W 127°53'816.1
2018-Oct-20 19:30N 51°29' W 127°51'715.6
2018-Oct-20 19:03N 51°22' W 127°52'115.5
2018-Oct-20 19:00N 51°22' W 127°52'815.6
2018-Oct-20 18:30N 51°14' W 127°52'715.3
2018-Oct-20 18:03N 51°08' W 127°47'116.0
2018-Oct-20 18:00N 51°07' W 127°46'815.6
2018-Oct-20 17:30N 51°02' W 127°37'614.4
2018-Oct-20 17:03N 50°58' W 127°29'115.3
2018-Oct-20 17:00N 50°57' W 127°28'815.5
2018-Oct-20 16:30N 50°52' W 127°18'716.5
2018-Oct-20 16:03N 50°48' W 127°09'116.2
2018-Oct-20 16:00N 50°48' W 127°07'1016.2
2018-Oct-20 15:22N 50°42' W 126°54'4715.9
2018-Oct-20 12:25N 50°23' W 125°47'1317.2
2018-Oct-20 11:41N 50°20' W 125°27'214.3
2018-Oct-20 11:30N 50°18' W 125°25'716.4
2018-Oct-20 11:03N 50°11' W 125°22'116.7
2018-Oct-20 11:00N 50°10' W 125°22'713.4
2018-Oct-20 10:30N 50°05' W 125°16'512.2
2018-Oct-20 10:03N 49°60' W 125°12'115.5
2018-Oct-20 10:00N 49°59' W 125°12'815.8
2018-Oct-20 09:30N 49°54' W 125°03'716.5
2018-Oct-20 09:03N 49°48' W 124°55'116.3
2018-Oct-20 09:00N 49°48' W 124°54'816.2
2018-Oct-20 08:30N 49°42' W 124°45'716.5
2018-Oct-20 08:03N 49°37' W 124°37'116.4
2018-Oct-20 08:00N 49°36' W 124°36'816.3
2018-Oct-20 07:30N 49°30' W 124°27'716.1
2018-Oct-20 07:04N 49°26' W 124°19'115.8
2018-Oct-20 07:00N 49°26' W 124°17'816.0
2018-Oct-20 06:31N 49°23' W 124°06'716.1
2018-Oct-20 06:04N 49°22' W 123°55'115.9
2018-Oct-20 06:01N 49°22' W 123°54'815.7
2018-Oct-20 05:30N 49°18' W 123°43'716.1
2018-Oct-20 05:03N 49°13' W 123°35'116.3
2018-Oct-20 05:01N 49°12' W 123°34'816.1
2018-Oct-20 04:30N 49°07' W 123°25'715.8
2018-Oct-20 04:04N 49°02' W 123°17'116.2
2018-Oct-20 04:01N 49°01' W 123°16'816.0
2018-Oct-20 03:30N 48°56' W 123°07'716.0
2018-Oct-20 03:04N 48°51' W 122°59'115.9
2018-Oct-20 03:01N 48°51' W 122°58'815.6
2018-Oct-20 02:30N 48°46' W 122°48'715.0
2018-Oct-20 02:03N 48°41' W 122°42'115.3
2018-Oct-20 02:01N 48°40' W 122°42'610.9
2018-Oct-20 01:29N 48°41' W 122°33'3 7.2
2018-Oct-20 01:03N 48°43' W 122°31'0 0.0
2018-Oct-20 01:00N 48°43' W 122°31'0 0.0
2018-Oct-20 00:17N 48°43' W 122°31'0 0.0
2018-Oct-19 23:41N 48°43' W 122°31'0 0.0
2018-Oct-19 23:29N 48°43' W 122°31'0 0.0
2018-Oct-19 22:59N 48°43' W 122°31'0 0.0
2018-Oct-19 22:29N 48°43' W 122°31'0 0.0
2018-Oct-19 21:41N 48°43' W 122°31'0 0.0
2018-Oct-19 21:29N 48°43' W 122°31'0 0.0
2018-Oct-19 20:59N 48°43' W 122°31'0 0.0
2018-Oct-19 20:17N 48°43' W 122°31'0 0.0
2018-Oct-19 19:47N 48°43' W 122°31'0 0.0
2018-Oct-19 19:11N 48°43' W 122°31'0 0.0
2018-Oct-19 18:47N 48°43' W 122°31'0 0.0
2018-Oct-19 18:29N 48°43' W 122°31'0 0.0
2018-Oct-19 17:59N 48°43' W 122°31'0 0.0
2018-Oct-19 17:29N 48°43' W 122°31'0 0.0
2018-Oct-19 16:59N 48°43' W 122°31'0 0.0
2018-Oct-19 16:29N 48°43' W 122°31'0 0.0
2018-Oct-19 15:59N 48°43' W 122°31'0 0.0
2018-Oct-19 15:29N 48°43' W 122°31'0 0.1
2018-Oct-19 14:47N 48°43' W 122°31'1 2.4
2018-Oct-19 14:31N 48°43' W 122°32'8 8.0
2018-Oct-19 13:30N 48°40' W 122°43'714.7
2018-Oct-19 13:03N 48°45' W 122°49'114.6
2018-Oct-19 13:00N 48°46' W 122°50'815.1
2018-Oct-19 12:30N 48°50' W 122°60'715.2
2018-Oct-19 12:03N 48°54' W 123°07'115.5
2018-Oct-19 12:00N 48°55' W 123°08'816.3
2018-Oct-19 11:30N 48°60' W 123°18'817.5
2018-Oct-19 11:03N 49°05' W 123°27'117.1
2018-Oct-19 11:00N 49°06' W 123°28'817.0
2018-Oct-19 10:30N 49°11' W 123°38'816.8
2018-Oct-19 10:03N 49°15' W 123°48'117.5
2018-Oct-19 10:00N 49°15' W 123°49'917.1
2018-Oct-19 09:30N 49°19' W 124°00'816.9
2018-Oct-19 09:03N 49°23' W 124°11'116.9
2018-Oct-19 09:00N 49°24' W 124°12'816.8
2018-Oct-19 08:30N 49°28' W 124°23'816.8
2018-Oct-19 08:03N 49°33' W 124°31'117.0
2018-Oct-19 08:00N 49°34' W 124°32'816.8
2018-Oct-19 07:30N 49°40' W 124°41'816.9
2018-Oct-19 07:03N 49°45' W 124°49'117.1
2018-Oct-19 07:00N 49°46' W 124°50'816.9
2018-Oct-19 06:30N 49°52' W 124°60'816.8
2018-Oct-19 06:03N 49°57' W 125°08'117.2
2018-Oct-19 05:59N 49°58' W 125°09'917.6
2018-Oct-19 05:30N 50°05' W 125°16'613.3
2018-Oct-19 05:03N 50°10' W 125°22'1 9.7
2018-Oct-19 05:00N 50°10' W 125°22'816.1
2018-Oct-19 04:30N 50°18' W 125°25'914.1
2018-Oct-19 03:51N 50°22' W 125°38'515.6
2018-Oct-19 03:30N 50°23' W 125°46'1311.9
2018-Oct-19 02:23N 50°28' W 126°06'615.5
2018-Oct-19 02:00N 50°29' W 126°15'714.3
2018-Oct-19 01:30N 50°30' W 126°26'715.8
2018-Oct-19 01:03N 50°31' W 126°37'115.5
2018-Oct-19 01:00N 50°31' W 126°38'814.3
2018-Oct-19 00:28N 50°37' W 126°46'716.6
2018-Oct-19 00:01N 50°42' W 126°55'017.6
2018-Oct-19 00:00N 50°42' W 126°55'816.5
2018-Oct-18 23:30N 50°48' W 127°05'716.2
2018-Oct-18 23:03N 50°51' W 127°15'116.0
2018-Oct-18 23:00N 50°52' W 127°16'815.6
2018-Oct-18 22:30N 50°56' W 127°27'714.8
2018-Oct-18 22:03N 50°60' W 127°35'115.7
2018-Oct-18 22:00N 51°01' W 127°36'815.4
2018-Oct-18 21:30N 51°06' W 127°44'715.1
2018-Oct-18 21:03N 51°11' W 127°51'115.1
2018-Oct-18 21:01N 51°12' W 127°51'815.6
2018-Oct-18 20:30N 51°20' W 127°52'716.2
2018-Oct-18 20:03N 51°27' W 127°51'116.2
2018-Oct-18 20:00N 51°28' W 127°51'816.3
2018-Oct-18 19:31N 51°36' W 127°53'716.2
2018-Oct-18 19:03N 51°43' W 127°55'116.1
2018-Oct-18 19:00N 51°44' W 127°55'816.5
2018-Oct-18 18:31N 51°52' W 127°56'817.0
2018-Oct-18 18:03N 51°60' W 127°56'117.1
2018-Oct-18 18:01N 52°01' W 127°56'612.7
2018-Oct-18 17:30N 52°05' W 128°04'511.8
2018-Oct-18 17:04N 52°09' W 128°08'0 6.9
2018-Oct-18 17:00N 52°09' W 128°08'3 6.8
2018-Oct-18 16:30N 52°13' W 128°09'816.9
2018-Oct-18 16:03N 52°15' W 128°21'116.4
2018-Oct-18 16:00N 52°15' W 128°22'816.3
2018-Oct-18 15:31N 52°15' W 128°35'714.9
2018-Oct-18 15:03N 52°13' W 128°46'115.4
2018-Oct-18 15:01N 52°14' W 128°46'815.8
2018-Oct-18 14:30N 52°22' W 128°49'815.7
2018-Oct-18 14:00N 52°29' W 128°52'815.7
2018-Oct-18 13:30N 52°37' W 128°54'715.5
2018-Oct-18 13:03N 52°42' W 129°02'115.3
2018-Oct-18 13:00N 52°43' W 129°03'815.8
2018-Oct-18 12:30N 52°49' W 129°12'716.3
2018-Oct-18 12:03N 52°54' W 129°20'116.3
2018-Oct-18 12:00N 52°55' W 129°21'816.1
2018-Oct-18 11:30N 53°01' W 129°30'2916.1
2018-Oct-18 09:43N 53°26' W 129°55'416.1
2018-Oct-18 09:28N 53°28' W 130°00'716.3
2018-Oct-18 09:03N 53°32' W 130°09'116.4
2018-Oct-18 09:00N 53°33' W 130°10'916.8
2018-Oct-18 08:30N 53°37' W 130°22'716.5
2018-Oct-18 08:03N 53°42' W 130°31'116.0
2018-Oct-18 08:00N 53°43' W 130°32'816.3
2018-Oct-18 07:30N 53°48' W 130°43'716.5
2018-Oct-18 07:04N 53°53' W 130°52'116.1
2018-Oct-18 07:00N 53°54' W 130°53'815.4
2018-Oct-18 06:30N 54°01' W 130°58'716.0
2018-Oct-18 06:03N 54°08' W 131°00'115.7
2018-Oct-18 06:00N 54°08' W 131°00'815.6
2018-Oct-18 05:30N 54°16' W 131°03'715.7
2018-Oct-18 05:03N 54°23' W 131°07'114.9
2018-Oct-18 05:00N 54°24' W 131°07'814.9
2018-Oct-18 04:30N 54°30' W 131°14'715.7
2018-Oct-18 04:03N 54°35' W 131°22'115.6
2018-Oct-18 03:59N 54°36' W 131°23'  
2018-Oct-14 12:20N 54°54' W 131°02'516.6
2018-Oct-14 12:03N 54°50' W 130°59'116.5
2018-Oct-14 12:00N 54°49' W 130°58'816.1
2018-Oct-14 11:30N 54°42' W 130°51'816.8
2018-Oct-14 11:03N 54°37' W 130°42'116.6
2018-Oct-14 11:00N 54°36' W 130°41'816.0
2018-Oct-14 10:30N 54°28' W 130°38'716.4
2018-Oct-14 10:03N 54°21' W 130°36'115.6
2018-Oct-14 10:00N 54°20' W 130°36'816.2
2018-Oct-14 09:31N 54°13' W 130°29'714.6
2018-Oct-14 09:03N 54°07' W 130°23'116.8
2018-Oct-14 09:00N 54°07' W 130°23'816.3
2018-Oct-14 08:30N 54°01' W 130°13'715.8
2018-Oct-14 08:03N 53°54' W 130°08'116.1
2018-Oct-14 08:00N 53°54' W 130°07'816.4
2018-Oct-14 07:30N 53°48' W 129°57'716.3
2018-Oct-14 07:03N 53°43' W 129°49'116.2
2018-Oct-14 06:59N 53°42' W 129°48'7314.0
2018-Oct-14 01:48N 52°44' W 128°33'515.4
2018-Oct-14 01:31N 52°40' W 128°32'715.7
2018-Oct-14 01:03N 52°33' W 128°28'116.7
2018-Oct-14 01:00N 52°32' W 128°28'816.0
2018-Oct-14 00:30N 52°24' W 128°30'614.1
2018-Oct-14 00:04N 52°18' W 128°28'116.1
2018-Oct-14 00:00N 52°17' W 128°28'815.6
2018-Oct-13 23:30N 52°14' W 128°15'614.3
2018-Oct-13 23:03N 52°11' W 128°07'0 8.9
2018-Oct-13 23:00N 52°11' W 128°07'4 8.3
2018-Oct-13 22:31N 52°07' W 128°08'613.9
2018-Oct-13 22:03N 52°04' W 127°58'116.5
2018-Oct-13 22:01N 52°04' W 127°57'815.3
2018-Oct-13 21:30N 51°56' W 127°56'716.1
2018-Oct-13 21:03N 51°49' W 127°55'115.4
2018-Oct-13 21:01N 51°48' W 127°55'816.2
2018-Oct-13 20:31N 51°40' W 127°54'716.2
2018-Oct-13 20:04N 51°33' W 127°52'116.1
2018-Oct-13 20:01N 51°32' W 127°51'816.0
2018-Oct-13 19:31N 51°24' W 127°51'715.9
2018-Oct-13 19:03N 51°17' W 127°52'116.3
2018-Oct-13 19:00N 51°16' W 127°52'815.7
2018-Oct-13 18:31N 51°09' W 127°49'716.0
2018-Oct-13 18:03N 51°04' W 127°41'116.4
2018-Oct-13 18:01N 51°04' W 127°40'815.2
2018-Oct-13 17:30N 50°58' W 127°31'716.5
2018-Oct-13 17:04N 50°54' W 127°22'116.8
2018-Oct-13 17:00N 50°53' W 127°21'916.6
2018-Oct-13 16:28N 50°48' W 127°08'1216.4
2018-Oct-13 15:43N 50°41' W 126°53'415.5
2018-Oct-13 15:28N 50°39' W 126°49'815.5
2018-Oct-13 14:55N 50°32' W 126°40'716.0
2018-Oct-13 14:30N 50°30' W 126°30'816.2
2018-Oct-13 14:00N 50°29' W 126°17'2114.3
2018-Oct-13 12:34N 50°23' W 125°47'114.2
2018-Oct-13 12:30N 50°22' W 125°45'913.9
2018-Oct-13 11:52N 50°21' W 125°32'512.7
2018-Oct-13 11:30N 50°19' W 125°25'714.8
2018-Oct-13 11:04N 50°13' W 125°23'115.0
2018-Oct-13 11:01N 50°12' W 125°22'510.8
2018-Oct-13 10:30N 50°07' W 125°20'511.6
2018-Oct-13 10:03N 50°03' W 125°14'111.5
2018-Oct-13 10:00N 50°03' W 125°14'714.4
2018-Oct-13 09:30N 49°57' W 125°07'716.5
2018-Oct-13 09:03N 49°51' W 124°59'116.1
2018-Oct-13 09:01N 49°51' W 124°58'816.4
2018-Oct-13 08:31N 49°45' W 124°49'716.3
2018-Oct-13 08:03N 49°40' W 124°41'115.9
2018-Oct-13 08:01N 49°39' W 124°41'816.4
2018-Oct-13 07:30N 49°33' W 124°32'816.2
2018-Oct-13 07:02N 49°28' W 124°23'116.0
2018-Oct-13 07:00N 49°28' W 124°22'815.9
2018-Oct-13 06:30N 49°24' W 124°12'716.6
2018-Oct-13 06:04N 49°23' W 124°01'115.9
2018-Oct-13 06:01N 49°22' W 123°59'816.5
2018-Oct-13 05:31N 49°20' W 123°47'716.2
2018-Oct-13 05:03N 49°15' W 123°39'116.3
2018-Oct-13 05:00N 49°15' W 123°38'816.2
2018-Oct-13 04:30N 49°09' W 123°29'716.0
2018-Oct-13 04:03N 49°04' W 123°21'115.4
2018-Oct-13 04:01N 49°04' W 123°20'815.9
2018-Oct-13 03:30N 48°58' W 123°11'716.1
2018-Oct-13 03:03N 48°54' W 123°03'116.7
2018-Oct-13 03:00N 48°53' W 123°02'816.9
2018-Oct-13 02:30N 48°48' W 122°52'716.5
2018-Oct-13 02:04N 48°43' W 122°44'117.6
2018-Oct-13 02:00N 48°42' W 122°43'713.9
2018-Oct-13 01:31N 48°39' W 122°34'5 9.4
2018-Oct-13 00:59N 48°43' W 122°31'0 0.0
2018-Oct-13 00:27N 48°43' W 122°31'0 0.0
2018-Oct-12 23:57N 48°43' W 122°31'0 0.0
2018-Oct-12 23:27N 48°43' W 122°31'0 0.0
2018-Oct-12 22:15N 48°43' W 122°31'0 0.0
2018-Oct-12 21:57N 48°43' W 122°31'0 0.0
2018-Oct-12 21:27N 48°43' W 122°31'0 0.0
2018-Oct-12 20:51N 48°43' W 122°31'0 0.0
2018-Oct-12 20:21N 48°43' W 122°31'0 0.0
2018-Oct-12 18:54N 48°43' W 122°31'0 0.0
2018-Oct-12 18:09N 48°43' W 122°31'0 0.0
2018-Oct-12 17:54N 48°43' W 122°31'0 0.0
2018-Oct-12 17:06N 48°43' W 122°31'0 0.0
2018-Oct-12 16:48N 48°43' W 122°31'0 0.0
2018-Oct-12 16:30N 48°43' W 122°31'0 0.0
2018-Oct-12 15:51N 48°43' W 122°31'0 0.0
2018-Oct-12 15:21N 48°43' W 122°31'0 0.0
2018-Oct-12 14:57N 48°43' W 122°31'3 3.6
2018-Oct-12 14:03N 48°41' W 122°33'114.5
2018-Oct-12 13:58N 48°39' W 122°34'511.1
2018-Oct-12 13:30N 48°39' W 122°41'613.8
2018-Oct-12 13:03N 48°45' W 122°47'113.4
2018-Oct-12 13:00N 48°45' W 122°48'714.6
2018-Oct-12 12:30N 48°49' W 122°57'714.7
2018-Oct-12 12:03N 48°52' W 123°06'115.1
2018-Oct-12 12:00N 48°53' W 123°06'715.0
2018-Oct-12 11:31N 48°58' W 123°15'714.5
2018-Oct-12 11:03N 49°02' W 123°22'114.0
2018-Oct-12 11:01N 49°03' W 123°23'714.2
2018-Oct-12 10:30N 49°08' W 123°30'714.8
2018-Oct-12 10:03N 49°12' W 123°38'115.7
2018-Oct-12 10:00N 49°13' W 123°38'815.3
2018-Oct-12 09:30N 49°19' W 123°45'715.3
2018-Oct-12 09:03N 49°23' W 123°54'115.5
2018-Oct-12 09:00N 49°24' W 123°55'715.0
2018-Oct-12 08:30N 49°29' W 124°03'715.5
2018-Oct-12 08:03N 49°34' W 124°10'116.0
2018-Oct-12 08:00N 49°35' W 124°11'815.5
2018-Oct-12 07:30N 49°41' W 124°18'714.9
2018-Oct-12 07:03N 49°45' W 124°26'116.1
2018-Oct-12 07:00N 49°45' W 124°27'714.9
2018-Oct-12 06:30N 49°51' W 124°35'716.0
2018-Oct-12 06:03N 49°56' W 124°43'116.6
2018-Oct-12 06:00N 49°57' W 124°44'816.0
2018-Oct-12 05:30N 50°01' W 124°55'715.4
2018-Oct-12 05:03N 49°58' W 125°05'116.5
2018-Oct-12 05:00N 49°58' W 125°06'510.5
2018-Oct-12 04:30N 50°01' W 125°13'4 8.2
2018-Oct-12 04:03N 50°04' W 125°15'0 3.6
2018-Oct-12 04:00N 50°04' W 125°15'611.1
2018-Oct-12 03:31N 50°08' W 125°21'614.1
2018-Oct-12 03:04N 50°14' W 125°23'115.4
2018-Oct-12 03:00N 50°15' W 125°24'1212.8
2018-Oct-12 02:03N 50°22' W 125°39'014.3
2018-Oct-12 02:00N 50°22' W 125°40'1614.8
2018-Oct-12 00:54N 50°28' W 126°05'715.9
2018-Oct-12 00:27N 50°29' W 126°16'716.1
2018-Oct-12 00:03N 50°30' W 126°26'115.4
2018-Oct-12 00:00N 50°30' W 126°27'815.7
2018-Oct-11 23:30N 50°32' W 126°39'715.6
2018-Oct-11 23:03N 50°37' W 126°46'318.0
2018-Oct-11 22:52N 50°39' W 126°50'617.4
2018-Oct-11 22:30N 50°43' W 126°58'817.0
2018-Oct-11 22:03N 50°48' W 127°07'116.7
2018-Oct-11 22:00N 50°48' W 127°08'917.2
2018-Oct-11 21:30N 50°53' W 127°20'816.8
2018-Oct-11 21:03N 50°58' W 127°29'115.8
2018-Oct-11 21:00N 50°58' W 127°30'815.3
2018-Oct-11 20:30N 51°03' W 127°39'716.2
2018-Oct-11 20:04N 51°08' W 127°48'116.1
2018-Oct-11 20:01N 51°09' W 127°49'815.4
2018-Oct-11 19:30N 51°16' W 127°53'715.8
2018-Oct-11 19:03N 51°23' W 127°51'116.1
2018-Oct-11 19:01N 51°24' W 127°51'816.0
2018-Oct-11 18:30N 51°32' W 127°52'716.1
2018-Oct-11 18:03N 51°39' W 127°54'115.5
2018-Oct-11 18:00N 51°40' W 127°55'815.8
2018-Oct-11 17:31N 51°47' W 127°56'715.5
2018-Oct-11 17:03N 51°54' W 127°56'115.9
2018-Oct-11 17:01N 51°55' W 127°56'815.8
2018-Oct-11 16:31N 52°03' W 127°56'715.0
2018-Oct-11 16:03N 52°05' W 128°06'116.4
2018-Oct-11 16:00N 52°06' W 128°07'510.3
2018-Oct-11 15:30N 52°11' W 128°07'510.6
2018-Oct-11 15:03N 52°14' W 128°13'115.9
2018-Oct-11 15:00N 52°14' W 128°14'815.3
2018-Oct-11 14:30N 52°16' W 128°26'815.7
2018-Oct-11 14:01N 52°14' W 128°39'612.3
2018-Oct-11 13:30N 52°17' W 128°48'716.3
2018-Oct-11 13:03N 52°25' W 128°50'116.0
2018-Oct-11 13:00N 52°25' W 128°50'816.0
2018-Oct-11 12:30N 52°33' W 128°53'715.0
2018-Oct-11 12:03N 52°39' W 128°58'115.5
2018-Oct-11 12:00N 52°40' W 128°59'  

Dump ship's entire track history